sensor_id;sensor_type;location;lat;lon;timestamp;pressure;altitude;pressure_sealevel;temperature;humidity
75008;BME280;63554;48.940;12.050;2024-01-11T00:00:04;98395.72;;;-7.77;94.40
75008;BME280;63554;48.940;12.050;2024-01-11T00:04:07;98404.22;;;-7.71;94.30
75008;BME280;63554;48.940;12.050;2024-01-11T00:08:12;98407.59;;;-7.69;94.18
75008;BME280;63554;48.940;12.050;2024-01-11T00:12:14;98410.94;;;-7.66;93.82
75008;BME280;63554;48.940;12.050;2024-01-11T00:16:17;98397.25;;;-7.72;92.85
75008;BME280;63554;48.940;12.050;2024-01-11T00:20:20;98409.28;;;-7.68;92.83
75008;BME280;63554;48.940;12.050;2024-01-11T00:24:24;98399.09;;;-7.75;91.80
75008;BME280;63554;48.940;12.050;2024-01-11T00:28:27;98391.47;;;-7.79;91.38
75008;BME280;63554;48.940;12.050;2024-01-11T00:32:29;98392.56;;;-7.83;91.88
75008;BME280;63554;48.940;12.050;2024-01-11T00:36:32;98390.19;;;-7.88;91.90
75008;BME280;63554;48.940;12.050;2024-01-11T00:40:37;98400.59;;;-7.86;92.54
75008;BME280;63554;48.940;12.050;2024-01-11T00:44:40;98395.81;;;-7.96;93.04
75008;BME280;63554;48.940;12.050;2024-01-11T00:48:43;98392.56;;;-8.01;93.51
75008;BME280;63554;48.940;12.050;2024-01-11T00:52:45;98401.91;;;-7.95;93.75
75008;BME280;63554;48.940;12.050;2024-01-11T00:56:50;98399.44;;;-7.98;93.88
75008;BME280;63554;48.940;12.050;2024-01-11T01:00:53;98405.13;;;-7.90;93.47
75008;BME280;63554;48.940;12.050;2024-01-11T01:04:56;98393.28;;;-7.97;92.92
75008;BME280;63554;48.940;12.050;2024-01-11T01:08:59;98405.38;;;-7.95;93.16
75008;BME280;63554;48.940;12.050;2024-01-11T01:13:03;98409.03;;;-7.97;94.07
75008;BME280;63554;48.940;12.050;2024-01-11T01:17:06;98401.91;;;-7.95;94.58
75008;BME280;63554;48.940;12.050;2024-01-11T01:21:08;98401.34;;;-7.84;94.16
75008;BME280;63554;48.940;12.050;2024-01-11T01:25:11;98407.22;;;-7.79;93.91
75008;BME280;63554;48.940;12.050;2024-01-11T01:29:15;98396.34;;;-7.89;93.92
75008;BME280;63554;48.940;12.050;2024-01-11T01:33:18;98396.34;;;-7.89;94.37
75008;BME280;63554;48.940;12.050;2024-01-11T01:37:21;98400.69;;;-7.88;94.30
75008;BME280;63554;48.940;12.050;2024-01-11T01:41:23;98398.13;;;-7.89;94.04
75008;BME280;63554;48.940;12.050;2024-01-11T01:45:28;98407.69;;;-7.88;94.28
75008;BME280;63554;48.940;12.050;2024-01-11T01:49:30;98392.94;;;-7.91;93.84
75008;BME280;63554;48.940;12.050;2024-01-11T01:53:33;98407.69;;;-7.88;94.62
75008;BME280;63554;48.940;12.050;2024-01-11T01:57:36;98404.53;;;-7.95;94.21
75008;BME280;63554;48.940;12.050;2024-01-11T02:01:41;98415.81;;;-7.93;94.61
75008;BME280;63554;48.940;12.050;2024-01-11T02:05:45;98416.44;;;-7.88;95.69
75008;BME280;63554;48.940;12.050;2024-01-11T02:09:48;98405.31;;;-7.93;95.86
75008;BME280;63554;48.940;12.050;2024-01-11T02:13:51;98413.44;;;-7.98;95.21
75008;BME280;63554;48.940;12.050;2024-01-11T02:17:55;98418.84;;;-8.01;95.83
75008;BME280;63554;48.940;12.050;2024-01-11T02:22:00;98405.25;;;-8.09;95.40
75008;BME280;63554;48.940;12.050;2024-01-11T02:26:06;98410.31;;;-8.06;95.37
75008;BME280;63554;48.940;12.050;2024-01-11T02:30:10;98413.06;;;-8.07;95.13
75008;BME280;63554;48.940;12.050;2024-01-11T02:34:13;98405.00;;;-8.04;96.13
75008;BME280;63554;48.940;12.050;2024-01-11T02:38:15;98392.50;;;-7.99;96.98
75008;BME280;63554;48.940;12.050;2024-01-11T02:42:19;98389.88;;;-7.99;96.38
75008;BME280;63554;48.940;12.050;2024-01-11T02:46:22;98393.28;;;-7.97;96.78
75008;BME280;63554;48.940;12.050;2024-01-11T02:50:25;98389.81;;;-7.98;96.75
75008;BME280;63554;48.940;12.050;2024-01-11T02:54:28;98389.69;;;-7.96;96.46
75008;BME280;63554;48.940;12.050;2024-01-11T02:58:32;98389.00;;;-8.00;96.77
75008;BME280;63554;48.940;12.050;2024-01-11T03:02:36;98391.72;;;-8.01;96.43
75008;BME280;63554;48.940;12.050;2024-01-11T03:06:40;98386.94;;;-8.10;96.10
75008;BME280;63554;48.940;12.050;2024-01-11T03:10:43;98380.06;;;-8.13;95.91
75008;BME280;63554;48.940;12.050;2024-01-11T03:14:47;98380.66;;;-8.08;96.05
75008;BME280;63554;48.940;12.050;2024-01-11T03:18:50;98386.09;;;-8.11;96.43
75008;BME280;63554;48.940;12.050;2024-01-11T03:22:53;98378.59;;;-8.19;96.01
75008;BME280;63554;48.940;12.050;2024-01-11T03:26:55;98378.81;;;-8.23;95.76
75008;BME280;63554;48.940;12.050;2024-01-11T03:30:59;98381.44;;;-8.23;96.01
75008;BME280;63554;48.940;12.050;2024-01-11T03:35:02;98376.19;;;-8.23;96.36
75008;BME280;63554;48.940;12.050;2024-01-11T03:39:06;98360.22;;;-8.19;97.90
75008;BME280;63554;48.940;12.050;2024-01-11T03:43:08;98361.44;;;-8.08;97.69
75008;BME280;63554;48.940;12.050;2024-01-11T03:47:12;98361.00;;;-8.17;96.01
75008;BME280;63554;48.940;12.050;2024-01-11T03:51:15;98356.66;;;-8.35;96.70
75008;BME280;63554;48.940;12.050;2024-01-11T03:55:18;98356.00;;;-8.56;96.99
75008;BME280;63554;48.940;12.050;2024-01-11T03:59:21;98358.16;;;-8.64;97.17
75008;BME280;63554;48.940;12.050;2024-01-11T04:03:25;98356.84;;;-8.56;98.43
75008;BME280;63554;48.940;12.050;2024-01-11T04:07:28;98359.16;;;-8.49;97.51
75008;BME280;63554;48.940;12.050;2024-01-11T04:11:30;98370.66;;;-8.52;97.32
75008;BME280;63554;48.940;12.050;2024-01-11T04:15:33;98358.94;;;-8.62;97.53
75008;BME280;63554;48.940;12.050;2024-01-11T04:19:37;98364.09;;;-8.61;98.20
75008;BME280;63554;48.940;12.050;2024-01-11T04:23:40;98349.47;;;-8.66;98.72
75008;BME280;63554;48.940;12.050;2024-01-11T04:27:42;98353.88;;;-8.67;98.78
75008;BME280;63554;48.940;12.050;2024-01-11T04:31:45;98352.91;;;-8.64;98.49
75008;BME280;63554;48.940;12.050;2024-01-11T04:35:49;98364.72;;;-8.56;98.36
75008;BME280;63554;48.940;12.050;2024-01-11T04:39:52;98370.19;;;-8.60;98.07
75008;BME280;63554;48.940;12.050;2024-01-11T04:43:55;98364.78;;;-8.57;98.51
75008;BME280;63554;48.940;12.050;2024-01-11T04:47:57;98377.69;;;-8.52;97.99
75008;BME280;63554;48.940;12.050;2024-01-11T04:52:02;98383.00;;;-8.54;98.00
75008;BME280;63554;48.940;12.050;2024-01-11T04:56:06;98392.50;;;-8.51;98.02
75008;BME280;63554;48.940;12.050;2024-01-11T05:00:09;98385.56;;;-8.52;97.77
75008;BME280;63554;48.940;12.050;2024-01-11T05:04:12;98376.34;;;-8.61;97.63
75008;BME280;63554;48.940;12.050;2024-01-11T05:08:16;98391.31;;;-8.63;97.53
75008;BME280;63554;48.940;12.050;2024-01-11T05:12:19;98393.03;;;-8.62;98.26
75008;BME280;63554;48.940;12.050;2024-01-11T05:16:23;98393.09;;;-8.64;98.91
75008;BME280;63554;48.940;12.050;2024-01-11T05:20:26;98401.44;;;-8.56;99.07
75008;BME280;63554;48.940;12.050;2024-01-11T05:24:30;98391.19;;;-8.60;98.75
75008;BME280;63554;48.940;12.050;2024-01-11T05:28:32;98399.06;;;-8.60;98.84
75008;BME280;63554;48.940;12.050;2024-01-11T05:32:35;98400.75;;;-8.59;99.17
75008;BME280;63554;48.940;12.050;2024-01-11T05:36:38;98415.41;;;-8.55;99.16
75008;BME280;63554;48.940;12.050;2024-01-11T05:40:42;98395.38;;;-8.56;99.06
75008;BME280;63554;48.940;12.050;2024-01-11T05:44:45;98394.88;;;-8.64;99.22
75008;BME280;63554;48.940;12.050;2024-01-11T05:48:48;98407.06;;;-8.63;99.73
75008;BME280;63554;48.940;12.050;2024-01-11T05:52:51;98401.94;;;-8.66;99.66
75008;BME280;63554;48.940;12.050;2024-01-11T05:56:56;98404.69;;;-8.68;99.62
75008;BME280;63554;48.940;12.050;2024-01-11T06:01:00;98396.72;;;-8.66;99.89
75008;BME280;63554;48.940;12.050;2024-01-11T06:05:04;98412.44;;;-8.66;99.72
75008;BME280;63554;48.940;12.050;2024-01-11T06:09:07;98416.84;;;-8.67;99.79
75008;BME280;63554;48.940;12.050;2024-01-11T06:13:11;98407.38;;;-8.69;99.35
75008;BME280;63554;48.940;12.050;2024-01-11T06:17:14;98409.91;;;-8.68;99.79
75008;BME280;63554;48.940;12.050;2024-01-11T06:21:16;98407.00;;;-8.62;99.70
75008;BME280;63554;48.940;12.050;2024-01-11T06:25:19;98408.06;;;-8.66;100.00
75008;BME280;63554;48.940;12.050;2024-01-11T06:29:23;98410.47;;;-8.61;99.48
75008;BME280;63554;48.940;12.050;2024-01-11T06:33:26;98407.91;;;-8.63;100.00
75008;BME280;63554;48.940;12.050;2024-01-11T06:37:29;98404.50;;;-8.65;99.39
75008;BME280;63554;48.940;12.050;2024-01-11T06:41:31;98405.59;;;-8.69;98.67
75008;BME280;63554;48.940;12.050;2024-01-11T06:45:35;98418.00;;;-8.72;98.17
75008;BME280;63554;48.940;12.050;2024-01-11T06:49:38;98421.22;;;-8.85;98.49
75008;BME280;63554;48.940;12.050;2024-01-11T06:53:42;98412.34;;;-8.82;99.16
75008;BME280;63554;48.940;12.050;2024-01-11T06:57:46;98420.78;;;-8.76;98.88
75008;BME280;63554;48.940;12.050;2024-01-11T07:01:50;98428.84;;;-8.80;98.52
75008;BME280;63554;48.940;12.050;2024-01-11T07:05:53;98450.91;;;-8.84;98.22
75008;BME280;63554;48.940;12.050;2024-01-11T07:09:56;98450.69;;;-8.80;100.00
75008;BME280;63554;48.940;12.050;2024-01-11T07:13:59;98450.13;;;-8.67;100.00
75008;BME280;63554;48.940;12.050;2024-01-11T07:18:04;98444.16;;;-8.71;100.00
75008;BME280;63554;48.940;12.050;2024-01-11T07:22:07;98452.66;;;-8.66;99.81
75008;BME280;63554;48.940;12.050;2024-01-11T07:26:10;98470.03;;;-8.63;99.94
75008;BME280;63554;48.940;12.050;2024-01-11T07:30:13;98466.41;;;-8.61;99.48
75008;BME280;63554;48.940;12.050;2024-01-11T07:34:17;98469.19;;;-8.64;99.33
75008;BME280;63554;48.940;12.050;2024-01-11T07:38:21;98487.38;;;-8.61;99.20
75008;BME280;63554;48.940;12.050;2024-01-11T07:42:24;98476.78;;;-8.58;99.06
75008;BME280;63554;48.940;12.050;2024-01-11T07:46:26;98481.66;;;-8.50;99.26
75008;BME280;63554;48.940;12.050;2024-01-11T07:50:43;98487.22;;;-8.39;99.44
75008;BME280;63554;48.940;12.050;2024-01-11T07:54:46;98490.72;;;-8.21;99.39
75008;BME280;63554;48.940;12.050;2024-01-11T07:58:49;98490.97;;;-8.08;98.08
75008;BME280;63554;48.940;12.050;2024-01-11T08:02:52;98492.13;;;-7.96;97.52
75008;BME280;63554;48.940;12.050;2024-01-11T08:06:57;98488.53;;;-7.76;97.11
75008;BME280;63554;48.940;12.050;2024-01-11T08:11:00;98496.38;;;-7.59;96.85
75008;BME280;63554;48.940;12.050;2024-01-11T08:15:05;98489.97;;;-7.53;94.99
75008;BME280;63554;48.940;12.050;2024-01-11T08:19:08;98482.06;;;-7.36;94.69
75008;BME280;63554;48.940;12.050;2024-01-11T08:23:12;98484.59;;;-7.17;93.30
75008;BME280;63554;48.940;12.050;2024-01-11T08:27:15;98488.00;;;-7.14;92.99
75008;BME280;63554;48.940;12.050;2024-01-11T08:31:19;98504.91;;;-7.03;92.75
75008;BME280;63554;48.940;12.050;2024-01-11T08:35:22;98502.34;;;-7.04;92.58
75008;BME280;63554;48.940;12.050;2024-01-11T08:39:26;98516.47;;;-6.89;92.47
75008;BME280;63554;48.940;12.050;2024-01-11T08:43:29;98520.53;;;-7.00;92.55
75008;BME280;63554;48.940;12.050;2024-01-11T08:47:32;98518.13;;;-7.04;92.29
75008;BME280;63554;48.940;12.050;2024-01-11T08:51:36;98517.19;;;-6.70;92.27
75008;BME280;63554;48.940;12.050;2024-01-11T08:55:40;98516.03;;;-6.32;92.14
75008;BME280;63554;48.940;12.050;2024-01-11T08:59:45;98500.63;;;-6.08;89.49
75008;BME280;63554;48.940;12.050;2024-01-11T09:03:48;98483.72;;;-5.15;100.00
75008;BME280;63554;48.940;12.050;2024-01-11T09:07:51;98477.38;;;-4.98;93.70
75008;BME280;63554;48.940;12.050;2024-01-11T09:11:56;98485.38;;;-5.14;94.14
75008;BME280;63554;48.940;12.050;2024-01-11T09:15:59;98462.28;;;-4.96;90.11
75008;BME280;63554;48.940;12.050;2024-01-11T09:20:01;98470.31;;;-4.83;87.06
75008;BME280;63554;48.940;12.050;2024-01-11T09:24:04;98460.88;;;-3.64;97.63
75008;BME280;63554;48.940;12.050;2024-01-11T09:28:08;98457.06;;;-4.13;81.11
75008;BME280;63554;48.940;12.050;2024-01-11T09:32:12;98465.97;;;-4.84;82.65
75008;BME280;63554;48.940;12.050;2024-01-11T09:36:15;98456.19;;;-5.11;85.48
75008;BME280;63554;48.940;12.050;2024-01-11T09:40:18;98465.41;;;-4.89;85.36
75008;BME280;63554;48.940;12.050;2024-01-11T09:44:23;98462.09;;;-4.79;83.57
75008;BME280;63554;48.940;12.050;2024-01-11T09:48:26;98456.22;;;-4.55;83.03
75008;BME280;63554;48.940;12.050;2024-01-11T09:52:29;98443.66;;;-4.37;81.52
75008;BME280;63554;48.940;12.050;2024-01-11T09:56:35;98428.56;;;-4.22;81.34
75008;BME280;63554;48.940;12.050;2024-01-11T10:00:41;98440.19;;;-4.25;80.57
75008;BME280;63554;48.940;12.050;2024-01-11T10:04:45;98439.69;;;-3.90;79.21
75008;BME280;63554;48.940;12.050;2024-01-11T10:08:49;98446.41;;;-3.59;78.33
75008;BME280;63554;48.940;12.050;2024-01-11T10:12:51;98435.09;;;-3.35;77.25
75008;BME280;63554;48.940;12.050;2024-01-11T10:16:55;98421.84;;;-3.22;77.00
75008;BME280;63554;48.940;12.050;2024-01-11T10:20:58;98431.88;;;-2.76;76.73
75008;BME280;63554;48.940;12.050;2024-01-11T10:25:08;98431.44;;;-2.70;73.72
75008;BME280;63554;48.940;12.050;2024-01-11T10:29:12;98456.78;;;-2.91;75.66
75008;BME280;63554;48.940;12.050;2024-01-11T10:33:18;98467.34;;;-2.66;76.51
75008;BME280;63554;48.940;12.050;2024-01-11T10:37:23;98472.78;;;-2.43;75.56
75008;BME280;63554;48.940;12.050;2024-01-11T10:41:28;98467.44;;;-2.54;75.08
75008;BME280;63554;48.940;12.050;2024-01-11T10:45:32;98467.13;;;-2.26;74.39
75008;BME280;63554;48.940;12.050;2024-01-11T10:49:42;98433.69;;;-1.91;70.73
75008;BME280;63554;48.940;12.050;2024-01-11T10:53:47;98427.53;;;-1.92;72.02
75008;BME280;63554;48.940;12.050;2024-01-11T10:57:52;98423.69;;;-1.52;72.29
75008;BME280;63554;48.940;12.050;2024-01-11T11:01:57;98433.44;;;-1.53;70.95
75008;BME280;63554;48.940;12.050;2024-01-11T11:06:04;98438.72;;;-0.95;69.21
75008;BME280;63554;48.940;12.050;2024-01-11T11:10:08;98467.38;;;-1.34;68.88
75008;BME280;63554;48.940;12.050;2024-01-11T11:14:14;98469.34;;;-1.25;69.88
75008;BME280;63554;48.940;12.050;2024-01-11T11:18:17;98457.81;;;-1.48;69.30
75008;BME280;63554;48.940;12.050;2024-01-11T11:22:22;98433.13;;;-1.37;69.44
75008;BME280;63554;48.940;12.050;2024-01-11T11:26:26;98442.44;;;-1.09;67.65
75008;BME280;63554;48.940;12.050;2024-01-11T11:30:30;98433.72;;;-1.45;67.81
75008;BME280;63554;48.940;12.050;2024-01-11T11:34:42;98427.94;;;-1.16;68.47
75008;BME280;63554;48.940;12.050;2024-01-11T11:38:48;98426.53;;;-0.86;66.45
75008;BME280;63554;48.940;12.050;2024-01-11T11:42:51;98432.44;;;-0.71;66.86
75008;BME280;63554;48.940;12.050;2024-01-11T11:46:55;98429.47;;;-0.34;65.22
75008;BME280;63554;48.940;12.050;2024-01-11T11:51:01;98424.34;;;0.17;63.86
75008;BME280;63554;48.940;12.050;2024-01-11T11:55:07;98416.53;;;0.58;62.78
75008;BME280;63554;48.940;12.050;2024-01-11T11:59:10;98398.06;;;0.87;60.76
75008;BME280;63554;48.940;12.050;2024-01-11T12:03:13;98397.91;;;1.19;60.36
75008;BME280;63554;48.940;12.050;2024-01-11T12:07:16;98375.41;;;1.43;60.32
75008;BME280;63554;48.940;12.050;2024-01-11T12:11:21;98384.41;;;1.52;57.94
75008;BME280;63554;48.940;12.050;2024-01-11T12:15:26;98386.16;;;0.91;59.91
75008;BME280;63554;48.940;12.050;2024-01-11T12:19:29;98400.22;;;1.34;59.66
75008;BME280;63554;48.940;12.050;2024-01-11T12:23:32;98409.06;;;1.85;57.74
75008;BME280;63554;48.940;12.050;2024-01-11T12:27:37;98396.41;;;1.96;57.39
75008;BME280;63554;48.940;12.050;2024-01-11T12:31:41;98393.50;;;1.40;58.16
75008;BME280;63554;48.940;12.050;2024-01-11T12:35:44;98392.69;;;0.77;59.80
75008;BME280;63554;48.940;12.050;2024-01-11T12:39:48;98373.72;;;1.52;58.69
75008;BME280;63554;48.940;12.050;2024-01-11T12:43:52;98375.19;;;1.85;57.46
75008;BME280;63554;48.940;12.050;2024-01-11T12:47:55;98366.34;;;2.24;56.08
75008;BME280;63554;48.940;12.050;2024-01-11T12:51:58;98355.09;;;2.30;55.50
75008;BME280;63554;48.940;12.050;2024-01-11T12:56:03;98346.34;;;2.57;53.93
75008;BME280;63554;48.940;12.050;2024-01-11T13:00:12;98340.59;;;2.42;54.98
75008;BME280;63554;48.940;12.050;2024-01-11T13:04:18;98347.97;;;2.68;54.80
75008;BME280;63554;48.940;12.050;2024-01-11T13:08:20;98341.00;;;2.47;54.21
75008;BME280;63554;48.940;12.050;2024-01-11T13:12:23;98351.00;;;2.35;54.35
75008;BME280;63554;48.940;12.050;2024-01-11T13:16:28;98350.69;;;2.48;55.69
75008;BME280;63554;48.940;12.050;2024-01-11T13:20:31;98350.31;;;2.24;55.30
75008;BME280;63554;48.940;12.050;2024-01-11T13:24:33;98361.28;;;2.01;55.98
75008;BME280;63554;48.940;12.050;2024-01-11T13:28:36;98350.16;;;2.15;54.87
75008;BME280;63554;48.940;12.050;2024-01-11T13:32:40;98350.75;;;2.09;55.21
75008;BME280;63554;48.940;12.050;2024-01-11T13:36:43;98346.03;;;2.60;54.45
75008;BME280;63554;48.940;12.050;2024-01-11T13:40:46;98350.84;;;2.37;53.79
75008;BME280;63554;48.940;12.050;2024-01-11T13:44:48;98335.28;;;1.84;56.90
75008;BME280;63554;48.940;12.050;2024-01-11T13:48:53;98347.09;;;2.20;55.28
75008;BME280;63554;48.940;12.050;2024-01-11T13:52:56;98364.72;;;1.53;56.21
75008;BME280;63554;48.940;12.050;2024-01-11T13:56:58;98362.53;;;1.77;56.65
75008;BME280;63554;48.940;12.050;2024-01-11T14:01:02;98358.03;;;2.17;55.68
75008;BME280;63554;48.940;12.050;2024-01-11T14:05:08;98367.31;;;2.13;54.04
75008;BME280;63554;48.940;12.050;2024-01-11T14:09:13;98366.75;;;2.00;54.96
75008;BME280;63554;48.940;12.050;2024-01-11T14:13:17;98368.56;;;1.70;55.82
75008;BME280;63554;48.940;12.050;2024-01-11T14:17:20;98354.53;;;2.26;54.64
75008;BME280;63554;48.940;12.050;2024-01-11T14:21:24;98355.94;;;1.72;55.85
75008;BME280;63554;48.940;12.050;2024-01-11T14:25:27;98375.44;;;1.12;56.83
75008;BME280;63554;48.940;12.050;2024-01-11T14:29:31;98363.72;;;0.63;58.54
75008;BME280;63554;48.940;12.050;2024-01-11T14:33:34;98362.28;;;0.90;58.19
75008;BME280;63554;48.940;12.050;2024-01-11T14:37:40;98347.69;;;0.84;58.07
75008;BME280;63554;48.940;12.050;2024-01-11T14:41:43;98345.91;;;0.64;59.31
75008;BME280;63554;48.940;12.050;2024-01-11T14:45:47;98351.69;;;0.69;59.27
75008;BME280;63554;48.940;12.050;2024-01-11T14:49:52;98332.09;;;0.79;59.41
75008;BME280;63554;48.940;12.050;2024-01-11T14:53:56;98328.03;;;0.75;59.90
75008;BME280;63554;48.940;12.050;2024-01-11T14:57:59;98327.19;;;0.75;59.46
75008;BME280;63554;48.940;12.050;2024-01-11T15:02:03;98335.22;;;0.85;59.40
75008;BME280;63554;48.940;12.050;2024-01-11T15:06:06;98340.28;;;0.88;59.04
75008;BME280;63554;48.940;12.050;2024-01-11T15:10:12;98354.09;;;0.72;59.92
75008;BME280;63554;48.940;12.050;2024-01-11T15:14:15;98375.34;;;0.41;61.47
75008;BME280;63554;48.940;12.050;2024-01-11T15:18:18;98387.72;;;0.10;62.16
75008;BME280;63554;48.940;12.050;2024-01-11T15:22:24;98395.72;;;-0.23;63.85
75008;BME280;63554;48.940;12.050;2024-01-11T15:26:30;98385.03;;;-0.55;64.94
75008;BME280;63554;48.940;12.050;2024-01-11T15:30:33;98395.59;;;-0.76;66.03
75008;BME280;63554;48.940;12.050;2024-01-11T15:34:36;98377.50;;;-1.05;66.88
75008;BME280;63554;48.940;12.050;2024-01-11T15:38:39;98393.41;;;-1.16;68.29
75008;BME280;63554;48.940;12.050;2024-01-11T15:42:43;98395.31;;;-1.52;69.61
75008;BME280;63554;48.940;12.050;2024-01-11T15:46:46;98400.59;;;-1.74;71.13
75008;BME280;63554;48.940;12.050;2024-01-11T15:50:49;98408.41;;;-1.73;72.15
75008;BME280;63554;48.940;12.050;2024-01-11T15:54:53;98392.84;;;-1.77;72.33
75008;BME280;63554;48.940;12.050;2024-01-11T15:58:57;98395.25;;;-1.86;73.88
75008;BME280;63554;48.940;12.050;2024-01-11T16:02:59;98406.63;;;-1.96;73.95
75008;BME280;63554;48.940;12.050;2024-01-11T16:07:03;98418.53;;;-2.02;74.45
75008;BME280;63554;48.940;12.050;2024-01-11T16:11:05;98414.06;;;-2.13;74.71
75008;BME280;63554;48.940;12.050;2024-01-11T16:15:10;98411.00;;;-2.20;74.78
75008;BME280;63554;48.940;12.050;2024-01-11T16:19:13;98408.75;;;-2.37;75.33
75008;BME280;63554;48.940;12.050;2024-01-11T16:23:16;98414.00;;;-2.48;76.37
75008;BME280;63554;48.940;12.050;2024-01-11T16:27:19;98426.72;;;-2.53;77.06
75008;BME280;63554;48.940;12.050;2024-01-11T16:31:23;98413.81;;;-2.71;78.22
75008;BME280;63554;48.940;12.050;2024-01-11T16:35:26;98431.06;;;-2.52;92.20
75008;BME280;63554;48.940;12.050;2024-01-11T16:39:29;98419.56;;;-2.16;93.66
75008;BME280;63554;48.940;12.050;2024-01-11T16:43:32;98409.59;;;-2.36;82.21
75008;BME280;63554;48.940;12.050;2024-01-11T16:47:36;98420.19;;;-2.61;79.78
75008;BME280;63554;48.940;12.050;2024-01-11T16:51:41;98414.59;;;-2.82;80.32
75008;BME280;63554;48.940;12.050;2024-01-11T16:55:48;98420.34;;;-2.88;80.52
75008;BME280;63554;48.940;12.050;2024-01-11T16:59:51;98420.66;;;-2.92;80.90
75008;BME280;63554;48.940;12.050;2024-01-11T17:03:55;98425.53;;;-2.99;81.35
75008;BME280;63554;48.940;12.050;2024-01-11T17:07:58;98430.22;;;-3.03;82.00
75008;BME280;63554;48.940;12.050;2024-01-11T17:12:01;98433.81;;;-3.04;83.38
75008;BME280;63554;48.940;12.050;2024-01-11T17:16:04;98428.31;;;-3.13;82.12
75008;BME280;63554;48.940;12.050;2024-01-11T17:20:11;98425.78;;;-3.28;82.05
75008;BME280;63554;48.940;12.050;2024-01-11T17:24:14;98429.47;;;-3.30;83.20
75008;BME280;63554;48.940;12.050;2024-01-11T17:28:17;98436.44;;;-3.55;84.10
75008;BME280;63554;48.940;12.050;2024-01-11T17:32:20;98423.41;;;-3.71;85.92
75008;BME280;63554;48.940;12.050;2024-01-11T17:36:24;98432.31;;;-3.72;87.30
75008;BME280;63554;48.940;12.050;2024-01-11T17:40:28;98434.22;;;-3.61;86.71
75008;BME280;63554;48.940;12.050;2024-01-11T17:44:32;98423.66;;;-3.48;86.86
75008;BME280;63554;48.940;12.050;2024-01-11T17:48:35;98429.16;;;-3.39;85.69
75008;BME280;63554;48.940;12.050;2024-01-11T17:52:41;98424.00;;;-3.27;86.09
75008;BME280;63554;48.940;12.050;2024-01-11T17:56:46;98430.59;;;-2.96;96.63
75008;BME280;63554;48.940;12.050;2024-01-11T18:00:49;98435.25;;;-2.13;98.66
75008;BME280;63554;48.940;12.050;2024-01-11T18:04:53;98433.19;;;-2.21;86.11
75008;BME280;63554;48.940;12.050;2024-01-11T18:08:57;98438.78;;;-2.49;85.14
75008;BME280;63554;48.940;12.050;2024-01-11T18:13:00;98439.59;;;-2.73;85.37
75008;BME280;63554;48.940;12.050;2024-01-11T18:17:03;98437.81;;;-2.85;86.33
75008;BME280;63554;48.940;12.050;2024-01-11T18:21:06;98441.84;;;-2.92;86.71
75008;BME280;63554;48.940;12.050;2024-01-11T18:25:11;98443.97;;;-2.97;87.75
75008;BME280;63554;48.940;12.050;2024-01-11T18:29:13;98433.81;;;-3.04;88.41
75008;BME280;63554;48.940;12.050;2024-01-11T18:33:17;98436.88;;;-3.10;88.77
75008;BME280;63554;48.940;12.050;2024-01-11T18:37:20;98440.81;;;-3.15;89.47
75008;BME280;63554;48.940;12.050;2024-01-11T18:41:25;98431.28;;;-3.18;89.73
75008;BME280;63554;48.940;12.050;2024-01-11T18:45:28;98431.06;;;-3.15;89.83
75008;BME280;63554;48.940;12.050;2024-01-11T18:49:32;98453.41;;;-3.19;90.81
75008;BME280;63554;48.940;12.050;2024-01-11T18:53:34;98449.69;;;-3.29;92.13
75008;BME280;63554;48.940;12.050;2024-01-11T18:57:39;98445.03;;;-3.39;92.70
75008;BME280;63554;48.940;12.050;2024-01-11T19:01:44;98440.91;;;-3.43;92.89
75008;BME280;63554;48.940;12.050;2024-01-11T19:05:49;98446.63;;;-3.36;93.29
75008;BME280;63554;48.940;12.050;2024-01-11T19:09:51;98435.19;;;-3.36;93.45
75008;BME280;63554;48.940;12.050;2024-01-11T19:13:56;98432.31;;;-3.33;93.37
75008;BME280;63554;48.940;12.050;2024-01-11T19:17:59;98437.84;;;-3.36;93.44
75008;BME280;63554;48.940;12.050;2024-01-11T19:22:02;98444.22;;;-3.39;93.05
75008;BME280;63554;48.940;12.050;2024-01-11T19:26:05;98445.03;;;-3.39;93.08
75008;BME280;63554;48.940;12.050;2024-01-11T19:30:10;98457.53;;;-3.41;93.21
75008;BME280;63554;48.940;12.050;2024-01-11T19:34:13;98464.00;;;-3.45;93.71
75008;BME280;63554;48.940;12.050;2024-01-11T19:38:16;98460.81;;;-3.50;93.70
75008;BME280;63554;48.940;12.050;2024-01-11T19:42:19;98449.66;;;-3.55;94.37
75008;BME280;63554;48.940;12.050;2024-01-11T19:46:23;98460.16;;;-3.53;94.17
75008;BME280;63554;48.940;12.050;2024-01-11T19:50:25;98457.59;;;-3.55;94.27
75008;BME280;63554;48.940;12.050;2024-01-11T19:54:29;98458.47;;;-3.54;94.54
75008;BME280;63554;48.940;12.050;2024-01-11T19:58:32;98467.56;;;-3.59;94.74
75008;BME280;63554;48.940;12.050;2024-01-11T20:02:37;98475.38;;;-3.57;94.13
75008;BME280;63554;48.940;12.050;2024-01-11T20:06:40;98480.47;;;-3.54;94.98
75008;BME280;63554;48.940;12.050;2024-01-11T20:10:44;98482.16;;;-3.53;94.88
75008;BME280;63554;48.940;12.050;2024-01-11T20:14:47;98481.22;;;-3.52;95.19
75008;BME280;63554;48.940;12.050;2024-01-11T20:18:51;98472.53;;;-3.54;95.07
75008;BME280;63554;48.940;12.050;2024-01-11T20:22:55;98480.16;;;-3.49;95.29
75008;BME280;63554;48.940;12.050;2024-01-11T20:26:57;98482.91;;;-3.51;94.70
75008;BME280;63554;48.940;12.050;2024-01-11T20:31:04;98478.78;;;-3.55;95.20
75008;BME280;63554;48.940;12.050;2024-01-11T20:35:09;98483.44;;;-3.59;95.69
75008;BME280;63554;48.940;12.050;2024-01-11T20:39:12;98485.22;;;-3.59;95.47
75008;BME280;63554;48.940;12.050;2024-01-11T20:43:15;98492.97;;;-3.56;95.61
75008;BME280;63554;48.940;12.050;2024-01-11T20:47:18;98494.78;;;-3.56;95.83
75008;BME280;63554;48.940;12.050;2024-01-11T20:51:25;98505.13;;;-3.53;95.76
75008;BME280;63554;48.940;12.050;2024-01-11T20:55:28;98501.66;;;-3.54;95.85
75008;BME280;63554;48.940;12.050;2024-01-11T20:59:30;98502.38;;;-3.52;95.48
75008;BME280;63554;48.940;12.050;2024-01-11T21:03:35;98502.47;;;-3.53;95.87
75008;BME280;63554;48.940;12.050;2024-01-11T21:07:40;98511.91;;;-3.49;95.96
75008;BME280;63554;48.940;12.050;2024-01-11T21:11:42;98510.13;;;-3.49;96.04
75008;BME280;63554;48.940;12.050;2024-01-11T21:15:46;98499.84;;;-3.53;95.93